AKDT,Max TemperatureF,Mean TemperatureF,Min TemperatureF,Max Dew PointF,MeanDew PointF,Min DewpointF,Max Humidity, Mean Humidity, Min Humidity, Max Sea Level PressureIn, Mean Sea Level PressureIn, Min Sea Level PressureIn, Max VisibilityMiles, Mean VisibilityMiles, Min VisibilityMiles, Max Wind SpeedMPH, Mean Wind SpeedMPH, Max Gust SpeedMPH,PrecipitationIn, CloudCover, Events, WindDirDegrees
2013-10-1,30,28,26,27,24,18,93,85,64,30.19,30.18,30.17,10,5,1,17,15,,0.00,8,Snow,44
2013-10-2,30,26,23,27,24,19,93,90,86,30.13,30.11,30.10,10,4,0,15,10,,0.00,8,Fog-Snow,188
2013-10-3,23,19,15,19,16,12,93,87,86,30.08,30.05,30.00,10,3,0,8,5,,0.00,7,Fog-Snow,228
2013-10-4,30,27,24,27,25,23,93,91,86,29.96,29.95,29.94,8,5,0,7,4,,0.00,8,Fog-Snow,16
2013-10-5,26,22,17,25,18,14,93,89,80,29.87,29.80,29.73,10,6,1,12,9,,0.00,5,Fog,114
2013-10-6,28,22,15,19,15,10,86,77,69,29.62,29.60,29.58,20,18,10,12,9,,0.00,0,,168
2013-10-7,28,24,19,25,20,16,93,88,86,29.81,29.77,29.70,10,9,7,12,7,,0.00,7,Fog,243
2013-10-8,30,26,23,27,24,21,93,92,86,29.68,29.43,29.17,4,2,1,30,21,39,0.00,8,Snow,71
2013-10-9,32,31,30,30,28,27,93,88,86,29.94,29.17,29.04,10,6,1,15,7,,0.00,8,Snow,271
2013-10-10,30,28,26,28,26,25,93,87,86,29.59,29.52,29.44,10,7,4,22,17,,0.00,8,Snow,237
2013-10-11,24,20,17,21,18,16,93,89,86,29.70,29.67,29.65,10,7,0,18,11,,0.00,6,Fog,85
2013-10-12,28,24,21,19,19,18,86,80,69,29.78,29.75,29.72,10,10,10,6,4,,0.00,5,,168
2013-10-13,30,24,17,27,21,16,93,88,86,29.81,29.70,29.55,10,9,5,25,11,,0.00,7,Fog,72
2013-10-14,30,26,23,28,25,21,93,90,86,29.49,29.40,29.33,10,7,0,20,14,,0.00,6,Fog,228
2013-10-15,26,22,15,23,19,14,93,89,86,29.73,29.71,29.67,10,7,0,17,12,,0.00,5,Fog-Snow,241
2013-10-16,24,22,21,21,19,16,93,89,80,29.96,29.89,29.72,10,4,0,20,5,,0.00,7,Fog,93
2013-10-17,33,32,30,28,28,27,87,85,80,29.80,29.71,29.58,20,12,8,12,8,,0.00,8,,92
2013-10-18,33,30,26,30,28,23,93,88,86,29.59,29.53,29.43,10,10,10,13,8,,0.00,7,,228
2013-10-19,32,30,28,28,27,25,93,90,86,29.53,29.44,29.36,10,5,0,17,14,,0.00,6,Fog,77
2013-10-20,32,30,28,30,28,27,93,92,86,29.62,29.53,29.43,10,8,0,7,5,,0.00,7,Fog,139
2013-10-21,32,28,23,27,23,19,93,85,80,29.94,29.86,29.78,20,14,10,13,11,,0.00,4,,214
2013-10-22,26,20,15,21,18,12,93,86,80,30.16,30.12,30.05,20,12,10,10,8,,0.00,5,,202
2013-10-23,24,20,17,21,18,16,93,88,86,30.18,30.15,30.10,10,8,1,9,7,,0.00,8,Snow,223
2013-10-24,19,12,5,16,10,1,93,86,85,30.13,30.12,30.11,10,8,1,12,8,,0.00,5,,246
2013-10-25,24,19,14,21,18,10,86,82,74,30.07,30.04,30.02,10,10,10,23,17,,0.00,6,,67
2013-10-26,23,21,19,19,18,16,93,86,80,30.36,30.27,30.15,10,10,10,9,6,,0.00,7,,177
2013-10-27,30,22,17,25,19,14,93,86,80,30.25,30.01,29.80,10,10,10,21,17,,0.00,3,,105
2013-10-28,28,24,19,25,19,14,86,84,80,29.64,29.46,29.27,10,10,10,12,6,,0.00,4,,50
2013-10-29,26,24,23,25,23,19,93,89,86,29.50,29.34,29.18,10,5,2,16,13,,0.00,8,Snow,340
2013-10-30,21,18,15,18,16,14,93,87,86,29.56,29.55,29.54,10,6,3,14,8,,0.00,7,Snow,40
2013-10-31,15,15,14,12,12,12,93,86,86,29.75,29.67,29.59,10,6,2,8,6,,0.00,8,Snow,129